Weather at St Louis Lambert International Airport

Public forecast

Using degrees Fahrenheit for public forecast. Weather courtesy of forecast.io.

Current aviation weather report (METAR) for St Louis Lambert International Airport

Retrieved 2021/01/26 07:09 UTC (15 minutes ago):

KSTL 260709Z 00000KT 3/4SM R30R/4500V5500FT BR OVC003 02/01 A2966 RMK AO2 T00220006

Aviation forecast (TAF) for St Louis Lambert International Airport

Retrieved 2021/01/26 06:36 UTC (48 minutes ago):

TAF KSTL 260534Z 2606/2712 VRB03KT 1SM -DZ BR OVC002 FM260800 VRB03KT 3SM BR OVC003 FM261500 28010KT 5SM BR BKN005 FM262100 31005KT P6SM BKN013 FM270000 VRB04KT P6SM BKN010